createdAt,value
2018-12-15T00:01:08.641Z,15.00
2018-12-15T00:03:37.125Z,14.95
2018-12-15T00:06:05.457Z,14.20
2018-12-15T00:08:33.738Z,13.83
2018-12-15T00:11:02.018Z,15.80
2018-12-15T00:13:30.294Z,16.87
2018-12-15T00:15:58.555Z,17.17
2018-12-15T00:18:27.154Z,16.43
2018-12-15T00:20:55.438Z,17.27
2018-12-15T00:23:23.766Z,16.57
2018-12-15T00:25:52.035Z,15.70
2018-12-15T00:28:20.301Z,16.52
2018-12-15T00:30:48.557Z,15.13
2018-12-15T00:33:17.119Z,16.17
2018-12-15T00:35:45.426Z,13.97
2018-12-15T00:38:13.687Z,14.83
2018-12-15T00:43:20.083Z,15.27
2018-12-15T00:45:48.384Z,14.15
2018-12-15T00:48:16.649Z,14.77
2018-12-15T00:50:44.927Z,14.53
2018-12-15T00:53:13.196Z,14.23
2018-12-15T00:55:41.471Z,13.57
2018-12-15T00:58:09.760Z,14.90
2018-12-15T01:00:38.032Z,15.23
2018-12-15T01:03:06.298Z,14.17
2018-12-15T01:05:34.576Z,14.57
2018-12-15T01:08:02.851Z,13.17
2018-12-15T01:10:31.116Z,15.17
2018-12-15T01:12:59.494Z,15.13
2018-12-15T01:15:33.163Z,13.60
2018-12-15T01:18:01.434Z,13.53
2018-12-15T01:20:29.711Z,13.70
2018-12-15T01:25:36.141Z,13.30
2018-12-15T01:28:04.406Z,13.63
2018-12-15T01:30:32.704Z,13.10
2018-12-15T01:33:00.996Z,13.37
2018-12-15T01:35:29.250Z,13.30
2018-12-15T01:37:57.604Z,13.97
2018-12-15T01:40:25.867Z,14.65
2018-12-15T01:42:54.151Z,13.23
2018-12-15T01:45:22.399Z,12.83
2018-12-15T01:47:50.690Z,13.63
2018-12-15T01:50:18.968Z,13.53
2018-12-15T01:52:47.224Z,13.60
2018-12-15T01:55:15.500Z,13.83
2018-12-15T01:57:43.773Z,12.13
2018-12-15T02:02:51.428Z,12.93
2018-12-15T02:05:20.974Z,13.87
2018-12-15T02:07:49.256Z,12.97
2018-12-15T02:10:17.575Z,13.00
2018-12-15T02:12:45.871Z,12.93
2018-12-15T02:15:14.225Z,12.23
2018-12-15T02:17:42.540Z,12.63
2018-12-15T02:20:10.842Z,12.37
2018-12-15T02:22:39.100Z,12.43
2018-12-15T02:25:07.586Z,12.17
2018-12-15T02:27:35.857Z,12.50
2018-12-15T02:30:05.578Z,12.57
2018-12-15T02:32:33.884Z,13.27
2018-12-15T02:35:02.160Z,13.43
2018-12-15T02:40:10.631Z,13.37
2018-12-15T02:42:39.700Z,12.85
2018-12-15T02:45:07.971Z,13.07
2018-12-15T02:47:41.392Z,13.08
2018-12-15T02:50:06.686Z,13.20
2018-12-15T02:52:35.061Z,13.80
2018-12-15T02:55:03.394Z,13.57
2018-12-15T02:57:31.648Z,13.00
2018-12-15T02:59:59.923Z,14.00
2018-12-15T03:02:28.261Z,13.10
2018-12-15T03:04:56.713Z,13.37
2018-12-15T03:07:25.068Z,13.10
2018-12-15T03:09:53.394Z,13.87
2018-12-15T03:12:21.656Z,13.32
2018-12-15T03:14:49.906Z,14.83
2018-12-15T03:17:18.170Z,13.57
2018-12-15T03:19:46.431Z,13.80
2018-12-15T03:22:14.695Z,13.87
2018-12-15T03:24:42.967Z,14.73
2018-12-15T03:27:11.248Z,14.80
2018-12-15T03:29:39.523Z,14.37
2018-12-15T03:32:07.787Z,13.97
2018-12-15T03:34:36.163Z,14.47
2018-12-15T03:37:04.436Z,14.77
2018-12-15T03:39:32.723Z,14.13
2018-12-15T03:42:01.208Z,13.70
2018-12-15T03:44:29.459Z,13.80
2018-12-15T03:46:57.835Z,13.27
2018-12-15T03:49:26.143Z,12.77
2018-12-15T03:51:54.403Z,14.27
2018-12-15T03:54:22.677Z,13.77
2018-12-15T03:56:50.953Z,14.60
2018-12-15T04:02:00.036Z,13.43
2018-12-15T04:04:28.795Z,13.98
2018-12-15T04:06:57.102Z,14.43
2018-12-15T04:09:25.360Z,14.17
2018-12-15T04:11:53.726Z,14.30
2018-12-15T04:14:22.273Z,13.97
2018-12-15T04:16:50.561Z,14.38
2018-12-15T04:19:18.815Z,13.00
2018-12-15T04:21:47.098Z,14.33
2018-12-15T04:24:15.403Z,14.37
2018-12-15T04:26:43.670Z,14.00
2018-12-15T04:29:12.005Z,14.40
2018-12-15T04:31:40.356Z,14.40
2018-12-15T04:34:08.722Z,14.00
2018-12-15T04:39:15.238Z,13.03
2018-12-15T04:41:43.506Z,13.47
2018-12-15T04:44:11.876Z,13.50
2018-12-15T04:49:18.360Z,13.53
2018-12-15T04:51:46.634Z,14.27
2018-12-15T04:54:14.886Z,13.87
2018-12-15T04:56:43.204Z,14.03
2018-12-15T04:59:11.469Z,15.30
2018-12-15T05:01:39.740Z,14.93
2018-12-15T05:04:07.996Z,13.80
2018-12-15T05:06:36.313Z,14.80
2018-12-15T05:09:06.051Z,14.17
2018-12-15T05:11:34.316Z,14.00
2018-12-15T05:14:02.637Z,14.63
2018-12-15T05:16:30.918Z,14.57
2018-12-15T05:18:59.179Z,14.18
2018-12-15T05:24:05.684Z,12.63
2018-12-15T05:26:34.295Z,12.93
2018-12-15T05:29:02.571Z,13.23
2018-12-15T05:31:30.834Z,13.53
2018-12-15T05:33:59.103Z,13.67
2018-12-15T05:36:27.373Z,13.60
2018-12-15T05:38:55.676Z,14.00
2018-12-15T05:41:24.219Z,13.25
2018-12-15T05:43:52.532Z,14.00
2018-12-15T05:46:20.830Z,13.13
2018-12-15T05:48:49.156Z,13.33
2018-12-15T05:51:17.474Z,14.28
2018-12-15T05:53:45.736Z,12.57
2018-12-15T05:56:14.003Z,12.83
2018-12-15T05:58:42.296Z,13.23
2018-12-15T06:01:10.552Z,12.63
2018-12-15T06:03:38.847Z,13.78
2018-12-15T06:06:07.106Z,14.20
2018-12-15T06:08:35.359Z,12.23
2018-12-15T06:11:03.715Z,13.27
2018-12-15T06:13:32.308Z,12.37
2018-12-15T06:16:00.567Z,13.00
2018-12-15T06:18:31.823Z,13.30
2018-12-15T06:23:37.304Z,12.10
2018-12-15T06:26:05.589Z,13.18
2018-12-15T06:28:33.844Z,12.40
2018-12-15T06:31:02.100Z,13.63
2018-12-15T06:33:30.393Z,13.40
2018-12-15T06:35:58.647Z,13.00
2018-12-15T06:38:26.916Z,13.03
2018-12-15T06:40:55.268Z,13.10
2018-12-15T06:43:23.774Z,12.37
2018-12-15T06:45:52.419Z,12.77
2018-12-15T06:48:20.709Z,13.10
2018-12-15T06:50:48.999Z,12.40
2018-12-15T06:53:17.439Z,12.23
2018-12-15T06:55:45.704Z,12.35
2018-12-15T06:58:13.973Z,11.43
2018-12-15T07:00:42.299Z,11.83
2018-12-15T07:03:10.567Z,12.93
2018-12-15T07:05:38.848Z,12.60
2018-12-15T07:08:07.128Z,11.50
2018-12-15T07:10:35.387Z,12.17
2018-12-15T07:13:03.831Z,12.10
2018-12-15T07:15:32.196Z,11.80
2018-12-15T07:18:00.479Z,12.57
2018-12-15T07:20:28.789Z,11.13
2018-12-15T07:22:57.125Z,9.80
2018-12-15T07:25:25.374Z,11.43
2018-12-15T07:30:32.259Z,11.03
2018-12-15T07:33:00.529Z,10.03
2018-12-15T07:35:28.791Z,9.87
2018-12-15T07:37:57.067Z,10.03
2018-12-15T07:40:25.352Z,9.10
2018-12-15T07:42:53.628Z,10.38
2018-12-15T07:45:21.900Z,9.83
2018-12-15T07:47:50.176Z,10.43
2018-12-15T07:50:18.743Z,10.93
2018-12-15T07:52:47.028Z,10.30
2018-12-15T07:55:15.279Z,11.80
2018-12-15T07:57:43.597Z,13.37
2018-12-15T08:00:12.116Z,11.10
2018-12-15T08:02:40.412Z,9.67
2018-12-15T08:05:08.823Z,8.93
2018-12-15T08:07:37.247Z,8.93
2018-12-15T08:13:02.598Z,8.57
2018-12-15T08:15:31.180Z,8.37
2018-12-15T08:17:59.483Z,8.10
2018-12-15T08:20:29.039Z,8.40
2018-12-15T08:22:57.322Z,9.33
2018-12-15T08:28:03.740Z,9.60
2018-12-15T08:30:31.996Z,10.30
2018-12-15T08:33:00.330Z,9.43
2018-12-15T08:35:28.678Z,10.00
2018-12-15T08:37:56.972Z,9.57
2018-12-15T08:40:25.306Z,9.17
2018-12-15T08:42:53.639Z,9.97
2018-12-15T08:45:21.908Z,10.23
2018-12-15T08:47:50.216Z,9.40
2018-12-15T08:50:18.494Z,9.73
2018-12-15T08:52:46.751Z,9.83
2018-12-15T08:55:15.106Z,10.17
2018-12-15T08:57:43.379Z,9.77
2018-12-15T09:00:11.733Z,9.93
2018-12-15T09:02:40.262Z,9.17
2018-12-15T09:05:08.736Z,9.23
2018-12-15T09:07:37.023Z,8.53
2018-12-15T09:10:05.467Z,8.07
2018-12-15T09:12:33.723Z,8.03
2018-12-15T09:15:02.055Z,8.70
2018-12-15T09:17:30.357Z,8.53
2018-12-15T09:19:58.626Z,8.00
2018-12-15T09:22:26.917Z,7.62
2018-12-15T09:24:55.664Z,7.50
2018-12-15T09:27:24.046Z,7.53
2018-12-15T09:29:52.362Z,7.37
2018-12-15T09:32:20.607Z,8.25
2018-12-15T09:34:48.865Z,7.40
2018-12-15T09:37:17.142Z,8.10
2018-12-15T09:39:45.438Z,8.47
2018-12-15T09:42:13.821Z,8.50
2018-12-15T09:44:42.095Z,8.27
2018-12-15T09:47:11.604Z,8.20
2018-12-15T09:49:39.891Z,9.00
2018-12-15T09:52:08.200Z,8.60
2018-12-15T09:54:36.536Z,12.67
2018-12-15T09:57:04.840Z,8.03
2018-12-15T09:59:33.219Z,8.57
2018-12-15T10:02:01.473Z,10.30
2018-12-15T10:04:29.755Z,9.15
2018-12-15T10:06:58.023Z,7.77
2018-12-15T10:09:26.329Z,9.40
2018-12-15T10:11:54.609Z,8.97
2018-12-15T10:14:22.860Z,9.07
2018-12-15T10:16:51.301Z,8.73
2018-12-15T10:19:24.312Z,8.90
2018-12-15T10:21:49.823Z,9.60
2018-12-15T10:24:18.079Z,9.47
2018-12-15T10:26:46.338Z,9.80
2018-12-15T10:32:20.792Z,9.67
2018-12-15T10:34:49.072Z,9.17
2018-12-15T10:37:17.324Z,9.60
2018-12-15T10:39:45.641Z,10.00
2018-12-15T10:42:13.944Z,10.27
2018-12-15T10:44:42.257Z,9.63
2018-12-15T10:47:10.525Z,10.45
2018-12-15T10:49:38.783Z,9.83
2018-12-15T10:52:07.037Z,10.20
2018-12-15T10:54:35.315Z,10.07
2018-12-15T10:57:03.580Z,13.70
2018-12-15T10:59:31.856Z,11.57
2018-12-15T11:02:00.116Z,11.97
2018-12-15T11:04:28.385Z,10.30
2018-12-15T11:06:56.719Z,10.47
2018-12-15T11:09:25.019Z,11.43
2018-12-15T11:11:53.284Z,11.17
2018-12-15T11:14:21.539Z,10.57
2018-12-15T11:16:49.861Z,9.87
2018-12-15T11:19:18.167Z,10.03
2018-12-15T11:21:46.423Z,10.60
2018-12-15T11:26:53.019Z,10.40
2018-12-15T11:29:21.365Z,9.63
2018-12-15T11:31:49.647Z,9.90
2018-12-15T11:34:17.940Z,10.40
2018-12-15T11:36:46.197Z,10.50
2018-12-15T11:39:14.930Z,10.43
2018-12-15T11:41:43.185Z,10.63
2018-12-15T11:44:11.480Z,10.32
2018-12-15T11:46:39.739Z,10.33
2018-12-15T11:49:08.047Z,10.47
2018-12-15T11:51:36.308Z,11.70
2018-12-15T11:54:04.728Z,11.30
2018-12-15T11:56:32.978Z,11.50
2018-12-15T11:59:01.260Z,10.73
2018-12-15T12:01:29.584Z,11.53
2018-12-15T12:03:57.879Z,11.13
2018-12-15T12:06:26.178Z,11.20
2018-12-15T12:08:54.456Z,11.77
2018-12-15T12:11:22.761Z,11.07
2018-12-15T12:13:51.016Z,11.80
2018-12-15T12:16:19.299Z,10.80
2018-12-15T12:18:47.640Z,11.53
2018-12-15T12:21:15.896Z,12.00
2018-12-15T12:23:44.480Z,12.33
2018-12-15T12:26:12.735Z,12.60
2018-12-15T12:28:40.987Z,11.53
2018-12-15T12:31:09.265Z,11.93
2018-12-15T12:33:37.610Z,12.87
2018-12-15T12:38:44.076Z,11.83
2018-12-15T12:43:50.552Z,12.33
2018-12-15T12:46:18.911Z,11.67
2018-12-15T12:48:47.290Z,10.30
2018-12-15T12:51:16.867Z,11.48
2018-12-15T12:53:45.134Z,11.80
2018-12-15T12:56:13.444Z,12.03
2018-12-15T13:01:24.160Z,12.13
2018-12-15T13:03:52.486Z,12.03
2018-12-15T13:06:21.389Z,10.30
2018-12-15T13:08:49.684Z,10.00
2018-12-15T13:11:17.985Z,11.20
2018-12-15T13:13:46.341Z,9.93
2018-12-15T13:16:14.624Z,10.43
2018-12-15T13:18:42.959Z,10.47
2018-12-15T13:21:11.306Z,10.03
2018-12-15T13:23:39.592Z,9.57
2018-12-15T13:26:07.980Z,10.17
2018-12-15T13:28:36.241Z,9.73
2018-12-15T13:31:04.591Z,9.40
2018-12-15T13:33:34.508Z,8.80
2018-12-15T13:38:43.005Z,9.57
2018-12-15T13:41:11.415Z,10.40
2018-12-15T13:43:40.675Z,10.98
2018-12-15T13:46:09.088Z,9.83
2018-12-15T13:48:37.371Z,10.13
2018-12-15T13:51:05.728Z,10.83
2018-12-15T13:53:33.986Z,10.20
2018-12-15T13:56:02.313Z,10.50
2018-12-15T13:58:30.604Z,11.08
2018-12-15T14:00:58.913Z,9.87
2018-12-15T14:03:27.164Z,10.60
2018-12-15T14:05:55.513Z,11.77
2018-12-15T14:08:23.827Z,11.37
2018-12-15T14:10:52.199Z,10.67
2018-12-15T14:13:20.460Z,10.50
2018-12-15T14:15:48.715Z,10.77
2018-12-15T14:18:17.035Z,11.13
2018-12-15T14:20:45.325Z,10.13
2018-12-15T14:23:13.579Z,9.77
2018-12-15T14:25:41.874Z,9.43
2018-12-15T14:28:10.180Z,9.57
2018-12-15T14:30:38.512Z,9.07
2018-12-15T14:33:06.850Z,10.10
2018-12-15T14:35:35.116Z,10.10
2018-12-15T14:38:03.465Z,8.83
2018-12-15T14:40:31.704Z,8.90
2018-12-15T14:43:00.069Z,8.43
2018-12-15T14:45:28.797Z,9.18
2018-12-15T14:47:57.096Z,9.73
2018-12-15T14:50:25.424Z,8.23
2018-12-15T14:52:53.679Z,9.30
2018-12-15T14:55:21.965Z,9.40
2018-12-15T14:57:50.311Z,9.27
2018-12-15T15:00:18.797Z,9.68
2018-12-15T15:02:47.048Z,9.13
2018-12-15T15:05:15.335Z,9.97
2018-12-15T15:07:43.607Z,10.30
2018-12-15T15:10:12.036Z,9.80
2018-12-15T15:12:40.330Z,9.50
2018-12-15T15:15:08.827Z,8.98
2018-12-15T15:17:37.129Z,8.90
2018-12-15T15:20:08.981Z,10.13
2018-12-15T15:25:11.630Z,9.47
2018-12-15T15:27:39.952Z,9.20
2018-12-15T15:30:08.473Z,9.77
2018-12-15T15:35:14.992Z,8.60
2018-12-15T15:37:43.279Z,8.80
2018-12-15T15:40:11.632Z,9.38
2018-12-15T15:42:39.895Z,10.10
2018-12-15T15:45:08.366Z,9.40
2018-12-15T15:47:36.656Z,10.40
2018-12-15T15:50:07.090Z,9.68
2018-12-15T15:52:35.440Z,9.07
2018-12-15T15:55:04.975Z,9.00
2018-12-15T15:57:33.305Z,9.33
2018-12-15T16:00:01.656Z,9.90
2018-12-15T16:02:30.064Z,9.40
2018-12-15T16:04:58.344Z,9.80
2018-12-15T16:07:26.772Z,9.63
2018-12-15T16:09:55.048Z,9.50
2018-12-15T16:12:23.400Z,9.95
2018-12-15T16:14:51.681Z,9.37
2018-12-15T16:17:20.023Z,9.57
2018-12-15T16:19:48.276Z,9.20
2018-12-15T16:22:16.774Z,9.50
2018-12-15T16:24:45.205Z,10.10
2018-12-15T16:29:51.659Z,10.70
2018-12-15T16:32:20.004Z,10.20
2018-12-15T16:34:48.356Z,10.70
2018-12-15T16:37:16.677Z,9.37
2018-12-15T16:39:45.016Z,10.33
2018-12-15T16:42:13.463Z,10.73
2018-12-15T16:44:41.768Z,9.77
2018-12-15T16:47:10.100Z,9.63
2018-12-15T16:49:38.359Z,9.90
2018-12-15T16:52:06.692Z,11.33
2018-12-15T16:54:35.068Z,10.23
2018-12-15T16:57:03.336Z,10.13
2018-12-15T16:59:31.591Z,10.67
2018-12-15T17:02:00.071Z,10.35
2018-12-15T17:04:28.387Z,10.47
2018-12-15T17:06:56.687Z,9.95
2018-12-15T17:09:25.112Z,10.60
2018-12-15T17:11:53.412Z,9.60
2018-12-15T17:14:21.865Z,10.57
2018-12-15T17:16:50.171Z,10.63
2018-12-15T17:19:18.830Z,10.70
2018-12-15T17:21:47.111Z,9.47
2018-12-15T17:24:15.400Z,11.05
2018-12-15T17:26:43.726Z,10.43
2018-12-15T17:29:11.988Z,9.87
2018-12-15T17:31:40.279Z,11.20
2018-12-15T17:34:08.600Z,13.93
2018-12-15T17:36:36.904Z,12.53
2018-12-15T17:39:07.360Z,11.13
2018-12-15T17:41:35.887Z,10.77
2018-12-15T17:44:04.228Z,11.90
2018-12-15T17:46:32.487Z,11.43
2018-12-15T17:49:00.794Z,12.20
2018-12-15T17:51:29.115Z,10.83
2018-12-15T17:56:35.706Z,10.67
2018-12-15T17:59:03.987Z,11.90
2018-12-15T18:01:32.321Z,11.37
2018-12-15T18:04:00.588Z,11.80
2018-12-15T18:06:28.916Z,12.33
2018-12-15T18:08:57.179Z,13.13
2018-12-15T18:11:25.484Z,13.57
2018-12-15T18:13:53.744Z,12.03
2018-12-15T18:16:22.045Z,12.03
2018-12-15T18:18:50.889Z,12.67
2018-12-15T18:21:19.244Z,12.37
2018-12-15T18:23:47.508Z,12.57
2018-12-15T18:26:15.811Z,12.40
2018-12-15T18:28:44.117Z,11.53
2018-12-15T18:33:50.580Z,11.57
2018-12-15T18:36:18.884Z,11.30
2018-12-15T18:38:47.179Z,11.73
2018-12-15T18:41:15.479Z,13.33
2018-12-15T18:43:43.791Z,13.50
2018-12-15T18:46:12.152Z,16.90
2018-12-15T18:48:40.471Z,17.93
2018-12-15T18:51:08.739Z,24.07
2018-12-15T18:53:37.060Z,25.13
2018-12-15T18:56:05.431Z,22.30
2018-12-15T18:58:33.700Z,15.97
2018-12-15T19:01:02.009Z,12.93
2018-12-15T19:03:30.353Z,12.70
2018-12-15T19:05:58.608Z,14.45
2018-12-15T19:08:26.949Z,15.20
2018-12-15T19:10:55.266Z,15.20
2018-12-15T19:13:23.545Z,14.43
2018-12-15T19:15:51.823Z,15.03
2018-12-15T19:18:20.100Z,16.33
2018-12-15T19:20:48.339Z,17.17
2018-12-15T19:23:16.669Z,16.90
2018-12-15T19:25:44.928Z,16.00
2018-12-15T19:28:13.236Z,16.30
2018-12-15T19:30:41.505Z,15.73
2018-12-15T19:33:09.765Z,14.97
2018-12-15T19:35:38.066Z,14.30
2018-12-15T19:38:06.411Z,14.33
2018-12-15T19:40:34.667Z,14.40
2018-12-15T19:43:02.966Z,12.87
2018-12-15T19:45:31.227Z,12.87
2018-12-15T19:47:59.539Z,13.03
2018-12-15T19:50:27.791Z,11.83
2018-12-15T19:52:56.121Z,13.23
2018-12-15T19:55:24.399Z,12.85
2018-12-15T19:57:52.747Z,11.80
2018-12-15T20:00:21.104Z,12.25
2018-12-15T20:02:49.393Z,12.23
2018-12-15T20:05:17.840Z,12.20
2018-12-15T20:07:46.192Z,13.10
2018-12-15T20:10:14.510Z,13.53
2018-12-15T20:12:42.836Z,12.73
2018-12-15T20:15:11.123Z,12.87
2018-12-15T20:17:39.414Z,12.93
2018-12-15T20:20:07.786Z,12.63
2018-12-15T20:22:36.296Z,12.77
2018-12-15T20:25:05.147Z,12.78
2018-12-15T20:27:33.412Z,13.05
2018-12-15T20:30:01.717Z,14.13
2018-12-15T20:32:31.235Z,12.70
2018-12-15T20:34:59.538Z,13.73
2018-12-15T20:37:27.844Z,13.93
2018-12-15T20:39:56.144Z,14.37
2018-12-15T20:42:24.441Z,13.83
2018-12-15T20:44:52.731Z,13.90
2018-12-15T20:49:59.185Z,12.57
2018-12-15T20:52:27.633Z,13.57
2018-12-15T20:54:55.979Z,13.53
2018-12-15T20:57:24.342Z,13.77
2018-12-15T20:59:52.620Z,13.07
2018-12-15T21:02:20.953Z,13.77
2018-12-15T21:04:49.228Z,13.03
2018-12-15T21:07:17.523Z,13.83
2018-12-15T21:09:45.798Z,17.20
2018-12-15T21:12:14.051Z,14.33
2018-12-15T21:14:42.347Z,13.07
2018-12-15T21:17:10.609Z,13.40
2018-12-15T21:19:38.945Z,13.00
2018-12-15T21:22:10.600Z,12.27
2018-12-15T21:24:39.014Z,14.10
2018-12-15T21:27:07.313Z,12.77
2018-12-15T21:29:35.576Z,12.70
2018-12-15T21:32:04.200Z,13.00
2018-12-15T21:34:32.451Z,12.87
2018-12-15T21:37:00.748Z,13.90
2018-12-15T21:39:29.050Z,12.97
2018-12-15T21:41:57.308Z,14.80
2018-12-15T21:44:25.618Z,13.28
2018-12-15T21:46:53.912Z,14.97
2018-12-15T21:49:22.208Z,14.63
2018-12-15T21:51:56.095Z,16.40
2018-12-15T21:54:20.772Z,15.53
2018-12-15T21:59:27.216Z,15.03
2018-12-15T22:01:56.385Z,15.07
2018-12-15T22:04:24.679Z,14.23
2018-12-15T22:06:53.211Z,13.83
2018-12-15T22:09:21.510Z,13.93
2018-12-15T22:11:49.773Z,13.13
2018-12-15T22:14:18.040Z,12.47
2018-12-15T22:16:46.305Z,12.13
2018-12-15T22:19:14.583Z,13.33
2018-12-15T22:21:42.985Z,13.03
2018-12-15T22:24:11.335Z,12.73
2018-12-15T22:26:39.635Z,12.88
2018-12-15T22:29:07.924Z,14.00
2018-12-15T22:31:36.246Z,13.13
2018-12-15T22:34:04.500Z,13.93
2018-12-15T22:36:32.792Z,14.10
2018-12-15T22:39:01.075Z,15.80
2018-12-15T22:41:29.326Z,15.10
2018-12-15T22:46:35.844Z,14.77
2018-12-15T22:49:04.125Z,14.23
2018-12-15T22:54:03.041Z,13.27
2018-12-15T22:56:31.328Z,13.03
2018-12-15T22:58:59.612Z,13.97
2018-12-15T23:04:14.588Z,14.03
2018-12-15T23:06:42.985Z,12.90
2018-12-15T23:09:11.367Z,13.13
2018-12-15T23:11:39.685Z,13.13
2018-12-15T23:14:07.947Z,13.47
2018-12-15T23:16:36.289Z,13.10
2018-12-15T23:21:42.759Z,14.33
2018-12-15T23:24:11.145Z,13.45
2018-12-15T23:26:40.066Z,13.32
2018-12-15T23:29:08.326Z,14.53
2018-12-15T23:31:36.599Z,13.00
2018-12-15T23:34:04.936Z,14.03
2018-12-15T23:36:33.268Z,14.37
2018-12-15T23:39:01.566Z,13.93
2018-12-15T23:41:29.859Z,14.57
2018-12-15T23:43:58.143Z,14.90
2018-12-15T23:46:26.467Z,15.13
2018-12-15T23:48:54.743Z,15.33
2018-12-15T23:51:23.013Z,15.70
2018-12-15T23:53:51.335Z,16.52
2018-12-15T23:56:19.636Z,14.03
2018-12-15T23:58:47.908Z,14.50
